createdAt,value
2023-02-26T00:00:30.485Z,-2.63
2023-02-26T00:02:57.126Z,-2.62
2023-02-26T00:05:23.688Z,-2.78
2023-02-26T00:07:50.167Z,-2.79
2023-02-26T00:10:16.768Z,-2.67
2023-02-26T00:12:44.104Z,-2.71
2023-02-26T00:15:17.651Z,-2.74
2023-02-26T00:17:58.657Z,-2.79
2023-02-26T00:20:26.305Z,-2.83
2023-02-26T00:22:53.110Z,-2.78
2023-02-26T00:25:19.947Z,-2.83
2023-02-26T00:27:47.990Z,-2.77
2023-02-26T00:30:14.755Z,-2.75
2023-02-26T00:32:41.734Z,-2.86
2023-02-26T00:35:13.297Z,-2.78
2023-02-26T00:37:55.518Z,-2.70
2023-02-26T00:40:48.851Z,-2.70
2023-02-26T00:43:25.022Z,-2.67
2023-02-26T00:46:10.153Z,-2.64
2023-02-26T00:48:36.710Z,-2.60
2023-02-26T00:51:13.473Z,-2.60
2023-02-26T00:53:49.760Z,-2.65
2023-02-26T00:56:16.405Z,-2.53
2023-02-26T00:58:43.036Z,-2.41
2023-02-26T01:01:09.549Z,-2.34
2023-02-26T01:03:36.731Z,-2.32
2023-02-26T01:06:04.245Z,-2.35
2023-02-26T01:08:40.079Z,-2.28
2023-02-26T01:11:06.995Z,-2.31
2023-02-26T01:13:33.625Z,-2.39
2023-02-26T01:16:08.933Z,-2.44
2023-02-26T01:18:44.217Z,-2.51
2023-02-26T01:21:17.259Z,-2.61
2023-02-26T01:23:47.835Z,-2.88
2023-02-26T01:26:27.347Z,-3.16
2023-02-26T01:28:54.505Z,-3.04
2023-02-26T01:31:47.906Z,-3.07
2023-02-26T01:34:35.379Z,-3.00
2023-02-26T01:37:21.747Z,-2.94
2023-02-26T01:40:26.978Z,-2.98
2023-02-26T01:42:58.910Z,-2.85
2023-02-26T01:45:33.324Z,-2.78
2023-02-26T01:48:17.271Z,-2.78
2023-02-26T01:50:44.524Z,-2.93
2023-02-26T01:53:17.020Z,-2.91
2023-02-26T01:55:49.309Z,-2.82
2023-02-26T01:58:17.338Z,-2.88
2023-02-26T02:00:44.321Z,-2.75
2023-02-26T02:03:11.317Z,-2.63
2023-02-26T02:06:03.997Z,-2.68
2023-02-26T02:08:33.628Z,-2.84
2023-02-26T02:11:00.267Z,-2.83
2023-02-26T02:13:46.434Z,-2.82
2023-02-26T02:16:44.794Z,-2.98
2023-02-26T02:19:32.138Z,-2.83
2023-02-26T02:22:20.140Z,-2.65
2023-02-26T02:25:24.503Z,-2.69
2023-02-26T02:28:15.490Z,-2.63
2023-02-26T02:30:56.174Z,-2.62
2023-02-26T02:33:31.816Z,-2.71
2023-02-26T02:36:05.244Z,-2.77
2023-02-26T02:38:38.213Z,-2.77
2023-02-26T02:41:11.224Z,-2.79
2023-02-26T02:43:40.971Z,-2.97
2023-02-26T02:46:15.773Z,-2.95
2023-02-26T02:48:52.136Z,-2.97
2023-02-26T02:51:30.621Z,-2.86
2023-02-26T02:54:08.432Z,-2.81
2023-02-26T02:56:39.864Z,-2.81
2023-02-26T02:59:20.739Z,-2.93
2023-02-26T03:01:52.045Z,-2.99
2023-02-26T03:04:18.945Z,-2.82
2023-02-26T03:06:46.819Z,-2.75
2023-02-26T03:09:13.489Z,-2.96
2023-02-26T03:11:41.478Z,-2.87
2023-02-26T03:14:10.307Z,-3.06
2023-02-26T03:17:10.752Z,-3.08
2023-02-26T03:20:10.216Z,-2.98
2023-02-26T03:22:55.552Z,-2.90
2023-02-26T03:25:51.917Z,-3.01
2023-02-26T03:28:31.156Z,-3.17
2023-02-26T03:31:20.883Z,-3.33
2023-02-26T03:33:50.950Z,-3.24
2023-02-26T03:36:23.928Z,-3.17
2023-02-26T03:39:16.201Z,-3.33
2023-02-26T03:41:49.674Z,-3.10
2023-02-26T03:44:24.384Z,-3.02
2023-02-26T03:46:57.695Z,-3.02
2023-02-26T03:50:16.610Z,-3.24
2023-02-26T03:52:52.276Z,-3.20
2023-02-26T03:55:33.186Z,-3.18
2023-02-26T03:58:22.272Z,-3.03
2023-02-26T04:01:20.035Z,-2.97
2023-02-26T04:03:53.938Z,-3.05
2023-02-26T04:06:21.565Z,-3.02
2023-02-26T04:08:48.529Z,-3.03
2023-02-26T04:11:18.553Z,-3.26
2023-02-26T04:13:46.273Z,-3.24
2023-02-26T04:16:14.504Z,-3.24
2023-02-26T04:18:42.527Z,-3.31
2023-02-26T04:21:14.197Z,-3.32
2023-02-26T04:23:40.772Z,-3.40
2023-02-26T04:26:07.698Z,-3.51
2023-02-26T04:28:37.894Z,-3.53
2023-02-26T04:31:05.976Z,-3.68
2023-02-26T04:33:33.648Z,-3.88
2023-02-26T04:36:01.151Z,-3.94
2023-02-26T04:38:28.566Z,-4.01
2023-02-26T04:40:55.310Z,-4.00
2023-02-26T04:43:22.748Z,-4.14
2023-02-26T04:46:01.050Z,-4.25
2023-02-26T04:48:29.314Z,-4.28
2023-02-26T04:50:55.951Z,-4.20
2023-02-26T04:53:22.562Z,-4.12
2023-02-26T04:55:51.952Z,-4.20
2023-02-26T04:58:19.200Z,-4.10
2023-02-26T05:00:51.364Z,-4.14
2023-02-26T05:03:18.087Z,-4.16
2023-02-26T05:05:44.648Z,-4.19
2023-02-26T05:08:11.359Z,-4.19
2023-02-26T05:10:37.903Z,-4.10
2023-02-26T05:13:04.637Z,-4.12
2023-02-26T05:15:31.377Z,-4.10
2023-02-26T05:17:58.042Z,-4.21
2023-02-26T05:20:24.721Z,-4.20
2023-02-26T05:22:51.519Z,-4.20
2023-02-26T05:25:18.230Z,-4.36
2023-02-26T05:27:45.621Z,-4.56
2023-02-26T05:30:15.311Z,-4.72
2023-02-26T05:32:44.797Z,-4.60
2023-02-26T05:35:12.240Z,-4.50
2023-02-26T05:37:39.255Z,-4.34
2023-02-26T05:40:10.018Z,-4.12
2023-02-26T05:42:39.292Z,-4.02
2023-02-26T05:45:06.806Z,-4.04
2023-02-26T05:47:34.413Z,-4.10
2023-02-26T05:50:01.479Z,-4.10
2023-02-26T05:52:28.078Z,-4.12
2023-02-26T05:54:54.720Z,-4.30
2023-02-26T05:57:21.322Z,-4.38
2023-02-26T05:59:47.933Z,-4.30
2023-02-26T06:02:14.615Z,-4.23
2023-02-26T06:04:41.242Z,-4.30
2023-02-26T06:07:07.789Z,-4.31
2023-02-26T06:09:34.328Z,-4.12
2023-02-26T06:12:00.866Z,-4.19
2023-02-26T06:14:27.469Z,-4.14
2023-02-26T06:16:53.963Z,-4.23
2023-02-26T06:19:21.605Z,-4.30
2023-02-26T06:21:48.154Z,-4.38
2023-02-26T06:24:14.678Z,-4.39
2023-02-26T06:26:41.290Z,-4.41
2023-02-26T06:29:08.546Z,-4.25
2023-02-26T06:31:35.166Z,-4.16
2023-02-26T06:34:01.835Z,-4.11
2023-02-26T06:36:28.508Z,-4.16
2023-02-26T06:38:55.047Z,-4.10
2023-02-26T06:41:21.609Z,-3.93
2023-02-26T06:43:48.120Z,-3.94
2023-02-26T06:46:14.704Z,-3.84
2023-02-26T06:48:41.292Z,-4.00
2023-02-26T06:51:07.799Z,-3.87
2023-02-26T06:53:34.341Z,-3.86
2023-02-26T06:56:00.859Z,-3.78
2023-02-26T06:58:27.402Z,-3.62
2023-02-26T07:00:53.938Z,-3.79
2023-02-26T07:03:20.982Z,-3.82
2023-02-26T07:05:47.554Z,-3.73
2023-02-26T07:08:14.331Z,-3.51
2023-02-26T07:10:41.742Z,-3.49
2023-02-26T07:13:08.637Z,-3.56
2023-02-26T07:15:35.184Z,-3.65
2023-02-26T07:18:01.838Z,-3.63
2023-02-26T07:20:29.595Z,-3.49
2023-02-26T07:22:56.451Z,-3.42
2023-02-26T07:25:22.975Z,-3.28
2023-02-26T07:27:49.498Z,-3.23
2023-02-26T07:30:16.317Z,-3.44
2023-02-26T07:32:43.262Z,-3.65
2023-02-26T07:35:10.638Z,-3.76
2023-02-26T07:37:37.356Z,-3.57
2023-02-26T07:40:04.490Z,-3.50
2023-02-26T07:42:31.020Z,-3.59
2023-02-26T07:44:59.179Z,-3.85
2023-02-26T07:47:28.021Z,-3.74
2023-02-26T07:49:54.545Z,-3.57
2023-02-26T07:52:21.118Z,-3.53
2023-02-26T07:54:47.665Z,-3.66
2023-02-26T07:57:14.185Z,-3.45
2023-02-26T07:59:40.705Z,-3.66
2023-02-26T08:02:07.582Z,-3.78
2023-02-26T08:04:34.190Z,-3.71
2023-02-26T08:07:01.583Z,-3.51
2023-02-26T08:09:28.604Z,-3.56
2023-02-26T08:11:55.215Z,-3.38
2023-02-26T08:14:22.858Z,-2.77
2023-02-26T08:16:49.620Z,-2.18
2023-02-26T08:19:16.191Z,-2.12
2023-02-26T08:21:42.692Z,-2.41
2023-02-26T08:24:11.534Z,-2.53
2023-02-26T08:26:38.199Z,-2.77
2023-02-26T08:29:05.550Z,-2.84
2023-02-26T08:31:34.491Z,-3.04
2023-02-26T08:34:01.890Z,-3.55
2023-02-26T08:36:28.691Z,-3.19
2023-02-26T08:38:55.334Z,-2.72
2023-02-26T08:41:22.970Z,-2.73
2023-02-26T08:43:50.984Z,-2.38
2023-02-26T08:46:17.600Z,-1.91
2023-02-26T08:48:44.164Z,-1.89
2023-02-26T08:51:12.232Z,-1.93
2023-02-26T08:53:39.926Z,-2.12
2023-02-26T08:56:06.749Z,-2.03
2023-02-26T08:58:33.283Z,-2.03
2023-02-26T09:00:59.789Z,-2.08
2023-02-26T09:03:26.472Z,-2.24
2023-02-26T09:05:53.033Z,-2.29
2023-02-26T09:08:21.046Z,-2.32
2023-02-26T09:10:48.078Z,-2.08
2023-02-26T09:13:14.784Z,-2.22
2023-02-26T09:15:41.675Z,-2.20
2023-02-26T09:18:15.380Z,-2.27
2023-02-26T09:20:43.408Z,-2.32
2023-02-26T09:23:10.366Z,-2.36
2023-02-26T09:25:37.198Z,-2.35
2023-02-26T09:28:04.731Z,-2.68
2023-02-26T09:30:31.996Z,-2.84
2023-02-26T09:32:58.813Z,-2.63
2023-02-26T09:35:25.681Z,-2.53
2023-02-26T09:37:52.276Z,-2.81
2023-02-26T09:40:44.502Z,-2.97
2023-02-26T09:43:14.038Z,-2.64
2023-02-26T09:45:44.619Z,-2.49
2023-02-26T09:48:15.309Z,-2.56
2023-02-26T09:50:46.779Z,-2.55
2023-02-26T09:53:20.609Z,-2.53
2023-02-26T09:55:50.655Z,-2.86
2023-02-26T09:58:30.637Z,-2.52
2023-02-26T10:01:12.246Z,-2.46
2023-02-26T10:03:44.975Z,-2.57
2023-02-26T10:06:17.405Z,-2.37
2023-02-26T10:09:22.920Z,-2.29
2023-02-26T10:11:53.413Z,-2.28
2023-02-26T10:14:28.509Z,-2.39
2023-02-26T10:17:00.948Z,-2.51
2023-02-26T10:19:33.806Z,-2.77
2023-02-26T10:22:19.917Z,-2.52
2023-02-26T10:25:00.722Z,-2.63
2023-02-26T10:27:53.543Z,-2.96
2023-02-26T10:30:36.270Z,-3.10
2023-02-26T10:33:34.045Z,-3.26
2023-02-26T10:36:14.329Z,-3.05
2023-02-26T10:38:43.607Z,-2.88
2023-02-26T10:41:15.941Z,-2.72
2023-02-26T10:43:48.971Z,-2.82
2023-02-26T10:46:46.055Z,-2.92
2023-02-26T10:49:42.444Z,-2.74
2023-02-26T10:52:23.217Z,-1.49
2023-02-26T10:55:15.261Z,-0.96
2023-02-26T10:57:44.026Z,-1.34
2023-02-26T11:00:18.305Z,-1.50
2023-02-26T11:02:48.219Z,-1.37
2023-02-26T11:05:25.144Z,-1.18
2023-02-26T11:07:56.892Z,-1.22
2023-02-26T11:10:28.595Z,-0.63
2023-02-26T11:12:55.094Z,-0.50
2023-02-26T11:15:23.450Z,-0.94
2023-02-26T11:17:54.387Z,-1.10
2023-02-26T11:20:37.928Z,-1.05
2023-02-26T11:23:07.793Z,-1.48
2023-02-26T11:25:36.200Z,-1.28
2023-02-26T11:28:19.169Z,-1.09
2023-02-26T11:30:49.183Z,-1.54
2023-02-26T11:33:23.268Z,-1.93
2023-02-26T11:35:50.751Z,-1.94
2023-02-26T11:38:26.836Z,-2.25
2023-02-26T11:40:57.161Z,-2.29
2023-02-26T11:43:28.336Z,-2.16
2023-02-26T11:45:59.278Z,-2.20
2023-02-26T11:48:33.605Z,-2.34
2023-02-26T11:51:03.407Z,-2.19
2023-02-26T11:53:36.598Z,-2.05
2023-02-26T11:56:11.102Z,-2.18
2023-02-26T11:58:40.475Z,-2.57
2023-02-26T12:01:10.282Z,-2.49
2023-02-26T12:03:42.768Z,-2.73
2023-02-26T12:06:20.382Z,-2.93
2023-02-26T12:08:47.763Z,-2.97
2023-02-26T12:11:43.300Z,-3.05
2023-02-26T12:14:50.388Z,-3.07
2023-02-26T12:17:38.213Z,-2.87
2023-02-26T12:20:19.949Z,-2.72
2023-02-26T12:22:54.901Z,-2.66
2023-02-26T12:25:36.663Z,-2.42
2023-02-26T12:28:22.252Z,-2.40
2023-02-26T12:31:08.759Z,-2.45
2023-02-26T12:33:59.441Z,-2.35
2023-02-26T12:36:52.657Z,-2.24
2023-02-26T12:39:56.340Z,-2.28
2023-02-26T12:42:53.133Z,-2.12
2023-02-26T12:45:22.382Z,-2.22
2023-02-26T12:48:16.286Z,-2.15
2023-02-26T12:51:01.539Z,-2.24
2023-02-26T12:54:16.296Z,-2.45
2023-02-26T12:56:59.077Z,-2.37
2023-02-26T13:00:01.106Z,-2.23
2023-02-26T13:03:04.719Z,-2.25
2023-02-26T13:06:02.199Z,-2.04
2023-02-26T13:08:50.255Z,-2.00
2023-02-26T13:11:29.894Z,-1.95
2023-02-26T13:14:21.429Z,-1.68
2023-02-26T13:17:12.181Z,-1.68
2023-02-26T13:19:50.108Z,-1.64
2023-02-26T13:22:32.045Z,-1.47
2023-02-26T13:25:01.542Z,-1.82
2023-02-26T13:27:33.981Z,-2.02
2023-02-26T13:30:20.077Z,-1.86
2023-02-26T13:32:49.263Z,-2.05
2023-02-26T13:35:38.585Z,-1.77
2023-02-26T13:38:34.094Z,-1.99
2023-02-26T13:41:11.601Z,-2.02
2023-02-26T13:43:50.335Z,-2.21
2023-02-26T13:46:42.935Z,-2.31
2023-02-26T13:49:49.091Z,-2.25
2023-02-26T13:52:35.417Z,-2.00
2023-02-26T13:55:04.659Z,-2.20
2023-02-26T13:57:52.189Z,-2.41
2023-02-26T14:00:28.580Z,-2.52
2023-02-26T14:03:16.814Z,-2.39
2023-02-26T14:05:46.384Z,-2.25
2023-02-26T14:08:26.916Z,-2.07
2023-02-26T14:10:58.021Z,-1.90
2023-02-26T14:13:35.607Z,-1.68
2023-02-26T14:16:12.414Z,-1.68
2023-02-26T14:18:40.545Z,-1.76
2023-02-26T14:21:25.795Z,-1.64
2023-02-26T14:24:18.841Z,-1.64
2023-02-26T14:26:48.752Z,-1.60
2023-02-26T14:29:21.214Z,-1.69
2023-02-26T14:31:50.987Z,-1.82
2023-02-26T14:34:30.842Z,-1.86
2023-02-26T14:37:08.354Z,-1.99
2023-02-26T14:39:50.698Z,-1.96
2023-02-26T14:42:22.443Z,-2.14
2023-02-26T14:44:54.928Z,-2.07
2023-02-26T14:47:21.869Z,-1.92
2023-02-26T14:49:49.616Z,-2.05
2023-02-26T14:52:22.133Z,-2.07
2023-02-26T14:55:28.678Z,-2.00
2023-02-26T14:58:08.841Z,-1.67
2023-02-26T15:00:38.596Z,-1.21
2023-02-26T15:03:28.451Z,-0.96
2023-02-26T15:06:27.313Z,-1.02
2023-02-26T15:09:02.148Z,-1.56
2023-02-26T15:12:07.066Z,-1.69
2023-02-26T15:14:53.300Z,-1.62
2023-02-26T15:17:30.149Z,-1.76
2023-02-26T15:20:19.076Z,-2.06
2023-02-26T15:22:48.202Z,-2.33
2023-02-26T15:25:34.405Z,-2.26
2023-02-26T15:28:02.719Z,-2.25
2023-02-26T15:30:31.918Z,-2.06
2023-02-26T15:33:00.014Z,-2.26
2023-02-26T15:35:31.754Z,-2.24
2023-02-26T15:38:01.113Z,-2.11
2023-02-26T15:40:32.203Z,-1.92
2023-02-26T15:43:00.886Z,-1.85
2023-02-26T15:45:37.843Z,-1.78
2023-02-26T15:48:12.522Z,-1.99
2023-02-26T15:50:43.008Z,-2.03
2023-02-26T15:53:16.649Z,-1.97
2023-02-26T15:55:50.994Z,-1.93
2023-02-26T15:58:34.062Z,-1.96
2023-02-26T16:01:02.697Z,-1.88
2023-02-26T16:03:32.713Z,-1.91
2023-02-26T16:05:59.731Z,-2.11
2023-02-26T16:08:27.040Z,-2.25
2023-02-26T16:10:56.498Z,-2.31
2023-02-26T16:13:32.862Z,-2.49
2023-02-26T16:16:21.340Z,-2.37
2023-02-26T16:18:48.766Z,-2.16
2023-02-26T16:21:25.772Z,-2.15
2023-02-26T16:23:56.236Z,-2.08
2023-02-26T16:26:32.764Z,-2.11
2023-02-26T16:29:04.584Z,-2.15
2023-02-26T16:31:35.074Z,-2.20
2023-02-26T16:34:05.392Z,-2.34
2023-02-26T16:36:41.575Z,-2.35
2023-02-26T16:39:08.092Z,-2.33
2023-02-26T16:41:37.757Z,-2.21
2023-02-26T16:44:24.994Z,-2.21
2023-02-26T16:46:52.826Z,-2.18
2023-02-26T16:49:26.823Z,-2.21
2023-02-26T16:51:56.061Z,-2.12
2023-02-26T16:54:30.705Z,-2.27
2023-02-26T16:57:00.317Z,-2.30
2023-02-26T16:59:31.472Z,-2.26
2023-02-26T17:02:04.918Z,-2.33
2023-02-26T17:04:36.793Z,-2.38
2023-02-26T17:07:14.517Z,-2.45
2023-02-26T17:09:48.076Z,-2.34
2023-02-26T17:12:24.006Z,-2.42
2023-02-26T17:14:57.404Z,-2.48
2023-02-26T17:17:24.847Z,-2.46
2023-02-26T17:19:51.680Z,-2.53
2023-02-26T17:22:25.747Z,-2.56
2023-02-26T17:24:53.550Z,-2.54
2023-02-26T17:27:30.826Z,-2.54
2023-02-26T17:29:57.963Z,-2.46
2023-02-26T17:32:27.089Z,-2.46
2023-02-26T17:34:54.649Z,-2.40
2023-02-26T17:37:22.401Z,-2.39
2023-02-26T17:39:49.030Z,-2.56
2023-02-26T17:42:21.323Z,-2.49
2023-02-26T17:44:48.767Z,-2.53
2023-02-26T17:47:18.234Z,-2.49
2023-02-26T17:49:44.748Z,-2.72
2023-02-26T17:52:11.262Z,-2.66
2023-02-26T17:54:38.146Z,-2.56
2023-02-26T17:57:05.922Z,-2.62
2023-02-26T17:59:33.545Z,-2.54
2023-02-26T18:02:00.665Z,-2.49
2023-02-26T18:04:27.329Z,-2.42
2023-02-26T18:06:53.928Z,-2.47
2023-02-26T18:09:20.667Z,-2.46
2023-02-26T18:11:47.264Z,-2.55
2023-02-26T18:14:13.959Z,-2.60
2023-02-26T18:16:42.752Z,-2.53
2023-02-26T18:19:13.803Z,-2.61
2023-02-26T18:21:40.518Z,-2.63
2023-02-26T18:24:09.777Z,-2.75
2023-02-26T18:26:36.328Z,-2.65
2023-02-26T18:29:03.112Z,-2.53
2023-02-26T18:31:34.999Z,-2.58
2023-02-26T18:34:02.696Z,-2.64
2023-02-26T18:36:37.486Z,-2.63
2023-02-26T18:39:12.810Z,-2.67
2023-02-26T18:41:39.561Z,-2.72
2023-02-26T18:44:06.132Z,-2.70
2023-02-26T18:46:34.887Z,-2.72
2023-02-26T18:49:01.876Z,-2.71
2023-02-26T18:51:29.855Z,-2.65
2023-02-26T18:53:56.417Z,-2.68
2023-02-26T18:56:22.960Z,-2.73
2023-02-26T18:58:49.497Z,-2.70
2023-02-26T19:01:16.184Z,-2.83
2023-02-26T19:03:42.715Z,-2.76
2023-02-26T19:06:09.394Z,-2.74
2023-02-26T19:08:36.148Z,-2.68
2023-02-26T19:11:02.870Z,-2.68
2023-02-26T19:13:29.536Z,-2.73
2023-02-26T19:15:56.306Z,-2.77
2023-02-26T19:18:23.017Z,-2.77
2023-02-26T19:20:49.768Z,-2.82
2023-02-26T19:23:16.342Z,-2.78
2023-02-26T19:25:43.154Z,-2.78
2023-02-26T19:28:10.066Z,-2.74
2023-02-26T19:30:38.486Z,-2.87
2023-02-26T19:33:05.781Z,-2.95
2023-02-26T19:35:32.475Z,-2.84
2023-02-26T19:37:59.180Z,-2.81
2023-02-26T19:40:27.029Z,-2.77
2023-02-26T19:42:53.982Z,-2.76
2023-02-26T19:45:20.939Z,-2.85
2023-02-26T19:47:47.505Z,-2.97
2023-02-26T19:50:14.357Z,-2.95
2023-02-26T19:52:41.513Z,-2.96
2023-02-26T19:55:09.544Z,-2.88
2023-02-26T19:57:36.862Z,-3.05
2023-02-26T20:00:04.880Z,-2.96
2023-02-26T20:02:38.901Z,-2.93
2023-02-26T20:05:07.544Z,-2.92
2023-02-26T20:07:36.420Z,-2.97
2023-02-26T20:10:04.070Z,-2.95
2023-02-26T20:12:30.645Z,-3.03
2023-02-26T20:14:57.648Z,-3.13
2023-02-26T20:17:24.236Z,-3.15
2023-02-26T20:19:50.832Z,-3.16
2023-02-26T20:22:17.576Z,-3.18
2023-02-26T20:24:44.170Z,-3.29
2023-02-26T20:27:10.670Z,-3.25
2023-02-26T20:29:37.238Z,-3.23
2023-02-26T20:32:04.128Z,-3.15
2023-02-26T20:34:30.730Z,-3.13
2023-02-26T20:36:57.294Z,-3.10
2023-02-26T20:39:24.054Z,-3.30
2023-02-26T20:41:50.841Z,-3.26
2023-02-26T20:44:17.695Z,-3.17
2023-02-26T20:46:44.350Z,-3.29
2023-02-26T20:49:13.856Z,-3.29
2023-02-26T20:51:41.984Z,-3.41
2023-02-26T20:54:10.346Z,-3.39
2023-02-26T20:56:36.907Z,-3.39
2023-02-26T20:59:03.540Z,-3.34
2023-02-26T21:01:35.557Z,-3.32
2023-02-26T21:04:07.666Z,-3.33
2023-02-26T21:06:34.839Z,-3.39
2023-02-26T21:09:02.107Z,-3.39
2023-02-26T21:11:32.907Z,-3.31
2023-02-26T21:14:01.808Z,-3.33
2023-02-26T21:16:29.250Z,-3.37
2023-02-26T21:18:57.143Z,-3.47
2023-02-26T21:21:24.047Z,-3.41
2023-02-26T21:23:52.876Z,-3.37
2023-02-26T21:26:23.501Z,-3.34
2023-02-26T21:28:50.511Z,-3.36
2023-02-26T21:31:19.334Z,-3.28
2023-02-26T21:33:46.132Z,-3.37
2023-02-26T21:36:14.125Z,-3.43
2023-02-26T21:38:40.879Z,-3.47
2023-02-26T21:41:07.631Z,-3.44
2023-02-26T21:43:34.269Z,-3.53
2023-02-26T21:46:00.903Z,-3.43
2023-02-26T21:48:27.468Z,-3.39
2023-02-26T21:50:56.221Z,-3.49
2023-02-26T21:53:23.217Z,-3.44
2023-02-26T21:55:49.765Z,-3.49
2023-02-26T21:58:16.456Z,-3.38
2023-02-26T22:00:43.223Z,-3.37
2023-02-26T22:03:11.272Z,-3.28
2023-02-26T22:05:37.875Z,-3.30
2023-02-26T22:08:04.677Z,-3.26
2023-02-26T22:10:31.276Z,-3.24
2023-02-26T22:12:58.019Z,-3.36
2023-02-26T22:15:24.793Z,-3.28
2023-02-26T22:17:51.328Z,-3.39
2023-02-26T22:20:17.935Z,-3.66
2023-02-26T22:22:45.904Z,-3.68
2023-02-26T22:25:13.230Z,-3.67
2023-02-26T22:27:39.870Z,-3.71
2023-02-26T22:30:07.471Z,-3.81
2023-02-26T22:32:34.170Z,-3.78
2023-02-26T22:35:00.762Z,-3.66
2023-02-26T22:37:27.309Z,-3.71
2023-02-26T22:39:53.922Z,-3.73
2023-02-26T22:42:20.488Z,-3.72
2023-02-26T22:44:47.021Z,-3.88
2023-02-26T22:47:13.545Z,-4.05
2023-02-26T22:49:40.604Z,-3.96
2023-02-26T22:52:07.828Z,-3.93
2023-02-26T22:54:34.349Z,-4.07
2023-02-26T22:57:00.917Z,-3.97
2023-02-26T22:59:27.497Z,-4.06
2023-02-26T23:01:54.085Z,-4.03
2023-02-26T23:04:20.693Z,-3.85
2023-02-26T23:06:47.266Z,-3.76
2023-02-26T23:09:13.937Z,-3.72
2023-02-26T23:11:40.484Z,-3.67
2023-02-26T23:14:07.320Z,-3.78
2023-02-26T23:16:33.877Z,-3.87
2023-02-26T23:19:00.512Z,-4.07
2023-02-26T23:21:28.199Z,-4.19
2023-02-26T23:23:54.888Z,-4.16
2023-02-26T23:26:21.612Z,-4.09
2023-02-26T23:28:48.403Z,-4.16
2023-02-26T23:31:15.090Z,-4.06
2023-02-26T23:33:41.721Z,-4.11
2023-02-26T23:36:08.571Z,-4.00
2023-02-26T23:38:35.108Z,-3.96
2023-02-26T23:41:01.637Z,-4.12
2023-02-26T23:43:28.174Z,-4.10
2023-02-26T23:45:54.752Z,-4.19
2023-02-26T23:48:21.392Z,-4.13
2023-02-26T23:50:49.187Z,-4.01
2023-02-26T23:53:15.725Z,-3.98
2023-02-26T23:55:42.373Z,-3.95
2023-02-26T23:58:09.098Z,-4.06
